Terminal Aerodrome Forecast
Issued by NWS

Home | Current Version | Previous Version | Text Only | Print | Product List | Glossary On
Versions: 1 2 3 4 5 6 7 8 9 10 11 12 13 14 15 16 17 18 19 20 21 22
000
FTUS43 KDLH 191100
TAFHYR
TAF
KHYR 191131Z 1912/2012 18010G20KT P6SM SCT015 BKN200
     FM191500 19014G26KT P6SM SCT020 BKN100
     FM192000 19014G25KT P6SM -SHRA BKN040
     FM200000 20007KT P6SM VCSH BKN030=

USA.gov is the U.S. government's official web portal to all federal, state and local government web resources and services.